Time;durP1;ratioP1;P1;durP2;ratioP2;P2;SDS_P1;SDS_P2;PMS_P1;PMS_P2;Temp;Humidity;BMP_temperature;BMP_pressure;BME280_temperature;BME280_humidity;BME280_pressure;Samples;Min_cycle;Max_cycle;Signal;HPM_P1;HPM_P2
2023/08/06 00:00:48;;;;;;;;;;;;;;;26.92;62.89;99435.44;7403674;19;1547;-47
2023/08/06 00:03:19;;;;;;;;;;;;;;;26.95;62.66;99427.66;7403026;19;1552;-47
2023/08/06 00:05:47;;;;;;;;;;;;;;;26.95;62.82;99433.09;7402779;19;1378;-47
2023/08/06 00:08:15;;;;;;;;;;;;;;;26.89;62.91;99423.13;7403050;19;2020;-47
2023/08/06 00:10:44;;;;;;;;;;;;;;;26.89;62.87;99414.97;7399756;19;1896;-47
2023/08/06 00:13:12;;;;;;;;;;;;;;;26.92;62.74;99406.41;7402476;19;1647;-47
2023/08/06 00:15:40;;;;;;;;;;;;;;;26.99;62.70;99420.72;7401614;19;1326;-47
2023/08/06 00:18:08;;;;;;;;;;;;;;;26.93;62.63;99394.50;7401967;19;1196;-47
2023/08/06 00:20:41;;;;;;;;;;;;;;;26.93;62.68;99390.97;7402492;19;1292;-47
2023/08/06 00:23:09;;;;;;;;;;;;;;;26.88;62.86;99399.78;7402986;19;1536;-47
2023/08/06 00:25:37;;;;;;;;;;;;;;;26.89;62.81;99393.28;7402804;19;1019;-47
2023/08/06 00:28:05;;;;;;;;;;;;;;;26.93;62.86;99399.91;7401520;19;1272;-47
2023/08/06 00:30:34;;;;;;;;;;;;;;;26.91;63.07;99410.16;7399081;19;1845;-47
2023/08/06 00:33:02;;;;;;;;;;;;;;;26.95;62.66;99400.53;7400494;19;1204;-47
2023/08/06 00:35:30;;;;;;;;;;;;;;;26.93;62.99;99402.63;7401463;19;1218;-47
2023/08/06 00:38:01;;;;;;;;;;;;;;;26.90;63.08;99375.97;7401663;19;1213;-47
2023/08/06 00:40:30;;;;;;;;;;;;;;;26.88;63.18;99382.63;7401506;19;1680;-47
2023/08/06 00:42:58;;;;;;;;;;;;;;;26.84;63.12;99382.28;7400415;19;1832;-47
2023/08/06 00:45:27;;;;;;;;;;;;;;;26.92;62.95;99379.28;7400242;19;1328;-47
2023/08/06 00:47:56;;;;;;;;;;;;;;;26.91;62.74;99384.94;7402366;19;1695;-47
2023/08/06 00:50:24;;;;;;;;;;;;;;;26.93;62.93;99394.50;7399327;19;1849;-47
2023/08/06 00:52:52;;;;;;;;;;;;;;;26.94;62.82;99407.03;7399442;19;1908;-47
2023/08/06 00:55:23;;;;;;;;;;;;;;;26.90;62.72;99397.66;7401225;19;1727;-47
2023/08/06 00:57:55;;;;;;;;;;;;;;;26.89;63.07;99392.44;7401730;19;1762;-47
2023/08/06 01:00:24;;;;;;;;;;;;;;;27.04;62.61;99400.25;7401452;19;1502;-47
2023/08/06 01:02:53;;;;;;;;;;;;;;;26.94;62.94;99377.19;7401432;19;1427;-47
2023/08/06 01:05:21;;;;;;;;;;;;;;;26.94;62.86;99392.63;7401455;19;1419;-47
2023/08/06 01:07:54;;;;;;;;;;;;;;;26.92;63.03;99411.00;7401527;19;1114;-47
2023/08/06 01:10:32;;;;;;;;;;;;;;;26.90;62.97;99408.50;7400072;19;1853;-47
2023/08/06 01:13:08;;;;;;;;;;;;;;;26.90;63.09;99391.38;7401991;19;1058;-47
2023/08/06 01:15:41;;;;;;;;;;;;;;;26.92;63.03;99400.16;7401648;19;1924;-47
2023/08/06 01:18:10;;;;;;;;;;;;;;;26.91;62.97;99403.91;7400901;19;1538;-47
2023/08/06 01:20:41;;;;;;;;;;;;;;;26.97;62.81;99398.41;7400395;19;1427;-47
2023/08/06 01:23:09;;;;;;;;;;;;;;;26.97;62.94;99408.44;7399592;19;1937;-47
2023/08/06 01:25:42;;;;;;;;;;;;;;;26.94;62.79;99408.91;7400380;19;1230;-47
2023/08/06 01:28:14;;;;;;;;;;;;;;;26.91;63.16;99417.47;7400476;19;1880;-47
2023/08/06 01:30:44;;;;;;;;;;;;;;;26.91;62.96;99398.50;7398629;19;1874;-47
2023/08/06 01:33:14;;;;;;;;;;;;;;;26.94;62.73;99425.19;7398401;19;1893;-47
2023/08/06 01:35:45;;;;;;;;;;;;;;;26.90;62.83;99416.66;7400767;19;1466;-47
2023/08/06 01:38:14;;;;;;;;;;;;;;;26.89;63.13;99425.81;7399617;19;1502;-47
2023/08/06 01:40:42;;;;;;;;;;;;;;;26.86;62.99;99426.28;7399980;19;1443;-47
2023/08/06 01:43:10;;;;;;;;;;;;;;;26.90;62.91;99445.63;7398699;19;1252;-47
2023/08/06 01:45:39;;;;;;;;;;;;;;;26.91;63.00;99448.13;7398401;19;1246;-47
2023/08/06 01:48:07;;;;;;;;;;;;;;;26.95;62.78;99449.34;7399730;19;1705;-47
2023/08/06 01:50:35;;;;;;;;;;;;;;;26.91;63.05;99439.19;7398554;19;1861;-47
2023/08/06 01:53:06;;;;;;;;;;;;;;;26.96;62.79;99450.22;7398969;19;1325;-47
2023/08/06 01:55:34;;;;;;;;;;;;;;;26.89;62.85;99447.53;7398913;19;1552;-47
2023/08/06 01:58:03;;;;;;;;;;;;;;;26.93;62.87;99427.03;7398583;19;1657;-47
2023/08/06 02:00:31;;;;;;;;;;;;;;;26.90;62.84;99442.94;7399144;19;1214;-47
2023/08/06 02:02:59;;;;;;;;;;;;;;;26.88;63.06;99432.31;7396258;19;1229;-47
2023/08/06 02:05:27;;;;;;;;;;;;;;;26.92;62.78;99424.56;7398583;19;1253;-47
2023/08/06 02:07:56;;;;;;;;;;;;;;;26.89;62.78;99428.53;7399021;19;1532;-47
2023/08/06 02:10:27;;;;;;;;;;;;;;;26.89;63.15;99423.13;7395834;19;1846;-47
2023/08/06 02:12:55;;;;;;;;;;;;;;;26.97;62.81;99444.53;7398439;19;1864;-47
2023/08/06 02:15:23;;;;;;;;;;;;;;;26.93;62.93;99451.47;7398749;19;1296;-47
2023/08/06 02:17:52;;;;;;;;;;;;;;;26.91;62.91;99452.75;7397734;19;1232;-47
2023/08/06 02:20:20;;;;;;;;;;;;;;;26.89;62.96;99444.81;7398459;19;1651;-47
2023/08/06 02:22:48;;;;;;;;;;;;;;;26.87;62.92;99451.53;7398134;19;1788;-47
2023/08/06 02:25:17;;;;;;;;;;;;;;;26.88;62.96;99448.59;7399430;19;1058;-47
2023/08/06 02:27:47;;;;;;;;;;;;;;;26.84;63.23;99439.25;7398023;19;1245;-47
2023/08/06 02:30:16;;;;;;;;;;;;;;;26.91;62.82;99459.00;7397705;19;1846;-47
2023/08/06 02:32:44;;;;;;;;;;;;;;;26.90;62.97;99468.19;7396827;19;1616;-47
2023/08/06 02:35:12;;;;;;;;;;;;;;;26.93;62.96;99456.88;7397674;19;1442;-47
2023/08/06 02:37:41;;;;;;;;;;;;;;;26.86;63.01;99455.25;7397092;19;1551;-47
2023/08/06 02:40:10;;;;;;;;;;;;;;;26.86;63.07;99461.53;7396992;19;1525;-47
2023/08/06 02:42:38;;;;;;;;;;;;;;;26.87;63.20;99456.94;7397994;19;1153;-47
2023/08/06 02:45:10;;;;;;;;;;;;;;;26.91;62.79;99448.13;7398040;19;1206;-47
2023/08/06 02:47:38;;;;;;;;;;;;;;;26.86;62.96;99456.13;7398026;19;1452;-47
2023/08/06 02:50:07;;;;;;;;;;;;;;;26.85;63.26;99468.00;7397256;19;1845;-47
2023/08/06 02:52:35;;;;;;;;;;;;;;;26.86;63.44;99477.81;7397717;19;1626;-47
2023/08/06 02:55:03;;;;;;;;;;;;;;;26.83;63.37;99483.66;7397679;19;1289;-47
2023/08/06 02:57:31;;;;;;;;;;;;;;;26.81;62.93;99485.78;7397645;19;1725;-47
2023/08/06 03:00:00;;;;;;;;;;;;;;;26.83;63.16;99459.25;7397761;19;1963;-47
2023/08/06 03:02:31;;;;;;;;;;;;;;;26.80;63.30;99462.44;7398717;19;943;-47
2023/08/06 03:04:59;;;;;;;;;;;;;;;26.80;63.21;99484.13;7398896;19;1865;-47
2023/08/06 03:07:27;;;;;;;;;;;;;;;26.80;63.15;99470.56;7397087;19;1625;-47
2023/08/06 03:09:56;;;;;;;;;;;;;;;26.81;63.10;99465.97;7396618;19;1825;-47
2023/08/06 03:12:24;;;;;;;;;;;;;;;26.79;63.31;99458.03;7397938;19;1842;-47
2023/08/06 03:14:52;;;;;;;;;;;;;;;26.84;63.27;99452.81;7396557;19;1837;-47
2023/08/06 03:17:20;;;;;;;;;;;;;;;26.83;63.01;99445.69;7396103;19;1414;-47
2023/08/06 03:19:51;;;;;;;;;;;;;;;26.82;63.25;99465.75;7396955;19;1336;-47
2023/08/06 03:22:19;;;;;;;;;;;;;;;26.87;63.07;99463.19;7397327;19;1150;-47
2023/08/06 03:24:48;;;;;;;;;;;;;;;26.85;63.14;99468.00;7394553;19;1419;-47
2023/08/06 03:27:16;;;;;;;;;;;;;;;26.85;63.16;99448.19;7396464;19;1297;-47
2023/08/06 03:29:44;;;;;;;;;;;;;;;26.83;63.20;99463.88;7395372;19;1855;-47
2023/08/06 03:32:12;;;;;;;;;;;;;;;26.82;63.29;99459.47;7395152;19;1668;-46
2023/08/06 03:34:44;;;;;;;;;;;;;;;26.78;63.28;99465.34;7394283;19;1596;-47
2023/08/06 03:37:15;;;;;;;;;;;;;;;26.77;63.33;99460.13;7395814;19;1154;-47
2023/08/06 03:39:43;;;;;;;;;;;;;;;26.78;63.14;99459.94;7396222;19;1178;-47
2023/08/06 03:42:11;;;;;;;;;;;;;;;26.82;63.03;99454.91;7396804;19;1529;-47
2023/08/06 03:44:39;;;;;;;;;;;;;;;26.81;63.03;99450.50;7396116;19;1248;-48
2023/08/06 03:47:08;;;;;;;;;;;;;;;26.83;63.03;99436.75;7396941;19;1510;-47
2023/08/06 03:49:37;;;;;;;;;;;;;;;26.82;63.22;99443.19;7398560;19;979;-47
2023/08/06 03:52:06;;;;;;;;;;;;;;;26.87;63.32;99451.53;7397788;19;1577;-47
2023/08/06 03:54:37;;;;;;;;;;;;;;;26.85;63.09;99443.59;7396284;19;1449;-47
2023/08/06 03:57:05;;;;;;;;;;;;;;;26.86;63.08;99444.41;7395915;19;1451;-47
2023/08/06 03:59:34;;;;;;;;;;;;;;;26.81;63.19;99430.69;7396549;19;1698;-47
2023/08/06 04:02:02;;;;;;;;;;;;;;;26.80;62.84;99421.75;7397559;19;1007;-47
2023/08/06 04:04:30;;;;;;;;;;;;;;;26.78;63.14;99438.22;7397794;19;1017;-47
2023/08/06 04:06:59;;;;;;;;;;;;;;;26.86;63.02;99425.44;7395476;19;1608;-47
2023/08/06 04:09:27;;;;;;;;;;;;;;;26.84;63.07;99420.25;7395740;19;1436;-47
2023/08/06 04:11:58;;;;;;;;;;;;;;;26.91;62.84;99415.59;7394263;19;1840;-47
2023/08/06 04:14:26;;;;;;;;;;;;;;;26.92;62.93;99425.41;7395478;19;1825;-47
2023/08/06 04:16:55;;;;;;;;;;;;;;;26.91;62.91;99421.00;7394402;19;1293;-47
2023/08/06 04:19:23;;;;;;;;;;;;;;;26.90;62.84;99446.50;7395070;19;1528;-47
2023/08/06 04:21:51;;;;;;;;;;;;;;;26.88;63.06;99432.31;7394897;19;1008;-47
2023/08/06 04:24:20;;;;;;;;;;;;;;;26.90;63.05;99422.06;7396175;19;1940;-47
2023/08/06 04:26:48;;;;;;;;;;;;;;;26.92;62.71;99421.88;7397607;19;1522;-47
2023/08/06 04:29:19;;;;;;;;;;;;;;;27.00;62.49;99429.72;7402195;19;1384;-47
2023/08/06 04:31:47;;;;;;;;;;;;;;;26.99;62.53;99415.31;7400649;19;1858;-47
2023/08/06 04:34:15;;;;;;;;;;;;;;;27.07;62.37;99437.81;7399727;19;1660;-47
2023/08/06 04:36:43;;;;;;;;;;;;;;;27.13;62.21;99442.34;7402681;19;1977;-47
2023/08/06 04:39:12;;;;;;;;;;;;;;;27.11;62.34;99450.69;7403496;19;1030;-47
2023/08/06 04:41:40;;;;;;;;;;;;;;;27.20;62.09;99440.41;7402831;19;1604;-47
2023/08/06 04:44:08;;;;;;;;;;;;;;;27.26;61.83;99439.56;7402117;19;1959;-47
2023/08/06 04:46:39;;;;;;;;;;;;;;;27.28;61.74;99442.06;7401591;19;1952;-47
2023/08/06 04:49:08;;;;;;;;;;;;;;;27.27;61.89;99440.38;7401235;19;1506;-47
2023/08/06 04:51:36;;;;;;;;;;;;;;;27.23;61.99;99428.28;7400878;19;1843;-47
2023/08/06 04:54:04;;;;;;;;;;;;;;;27.24;61.96;99430.81;7402457;19;1241;-47
2023/08/06 04:56:33;;;;;;;;;;;;;;;27.24;61.92;99419.94;7401032;19;1457;-47
2023/08/06 04:59:01;;;;;;;;;;;;;;;27.16;61.76;99423.75;7400438;19;1283;-47
2023/08/06 05:01:30;;;;;;;;;;;;;;;27.20;62.02;99424.13;7400780;19;1559;-47
2023/08/06 05:04:00;;;;;;;;;;;;;;;27.26;61.72;99411.59;7400979;19;1489;-47
2023/08/06 05:06:29;;;;;;;;;;;;;;;27.18;61.94;99412.66;7401709;19;1484;-47
2023/08/06 05:08:57;;;;;;;;;;;;;;;27.27;61.77;99421.38;7399649;19;1663;-47
2023/08/06 05:11:25;;;;;;;;;;;;;;;27.23;62.01;99426.38;7398950;19;2016;-47
2023/08/06 05:13:54;;;;;;;;;;;;;;;27.17;62.13;99411.00;7400965;19;1417;-47
2023/08/06 05:16:22;;;;;;;;;;;;;;;27.14;62.21;99397.88;7400855;19;1414;-47
2023/08/06 05:18:50;;;;;;;;;;;;;;;26.92;61.81;99368.44;7401348;19;1426;-47
2023/08/06 05:21:21;;;;;;;;;;;;;;;27.16;62.13;99428.34;7401631;19;1054;-47
2023/08/06 05:23:49;;;;;;;;;;;;;;;27.09;62.36;99417.53;7401310;19;1813;-47
2023/08/06 05:26:19;;;;;;;;;;;;;;;27.12;62.21;99427.94;7400479;19;1470;-47
2023/08/06 05:28:47;;;;;;;;;;;;;;;27.08;62.43;99410.47;7401022;19;1394;-47
2023/08/06 05:31:15;;;;;;;;;;;;;;;27.13;62.24;99415.22;7400977;19;1852;-47
2023/08/06 05:33:44;;;;;;;;;;;;;;;27.21;62.05;99423.06;7400109;19;1114;-47
2023/08/06 05:36:12;;;;;;;;;;;;;;;27.17;62.26;99406.38;7400298;19;1865;-47
2023/08/06 05:38:43;;;;;;;;;;;;;;;27.24;61.99;99400.94;7399339;19;1520;-48
2023/08/06 05:41:11;;;;;;;;;;;;;;;27.21;61.98;99409.50;7399781;19;1866;-47
2023/08/06 05:43:40;;;;;;;;;;;;;;;27.25;62.00;99399.06;7399108;19;1125;-47
2023/08/06 05:46:08;;;;;;;;;;;;;;;27.10;62.45;99386.63;7399596;19;1201;-47
2023/08/06 05:48:36;;;;;;;;;;;;;;;27.11;62.53;99401.03;7399196;19;1157;-47
2023/08/06 05:51:04;;;;;;;;;;;;;;;27.04;62.43;99383.97;7399522;19;1835;-47
2023/08/06 05:53:33;;;;;;;;;;;;;;;27.06;62.57;99400.84;7399518;19;1555;-47
2023/08/06 05:56:04;;;;;;;;;;;;;;;26.92;62.72;99400.97;7399920;19;1813;-47
2023/08/06 05:58:32;;;;;;;;;;;;;;;26.92;62.76;99405.59;7399288;19;1629;-47
2023/08/06 06:01:00;;;;;;;;;;;;;;;26.91;62.83;99393.88;7398380;19;1805;-47
2023/08/06 06:03:29;;;;;;;;;;;;;;;27.03;62.78;99388.56;7398871;19;1660;-47
2023/08/06 06:05:57;;;;;;;;;;;;;;;27.02;62.45;99394.22;7399743;19;1403;-47
2023/08/06 06:08:25;;;;;;;;;;;;;;;27.17;62.22;99398.25;7399139;19;1336;-48
2023/08/06 06:10:54;;;;;;;;;;;;;;;27.17;62.31;99386.56;7398485;19;1841;-47
2023/08/06 06:13:25;;;;;;;;;;;;;;;27.19;62.08;99381.75;7399101;19;1672;-47
2023/08/06 06:15:56;;;;;;;;;;;;;;;27.09;62.72;99390.38;7400446;19;968;-47
2023/08/06 06:18:24;;;;;;;;;;;;;;;27.14;62.28;99370.75;7399647;19;1083;-47
2023/08/06 06:20:53;;;;;;;;;;;;;;;27.14;62.39;99381.59;7399098;19;1420;-47
2023/08/06 06:23:21;;;;;;;;;;;;;;;27.24;62.07;99387.38;7396500;19;1502;-47
2023/08/06 06:25:51;;;;;;;;;;;;;;;27.20;62.18;99394.28;7399359;19;1268;-47
2023/08/06 06:28:19;;;;;;;;;;;;;;;27.19;62.23;99395.31;7398203;19;1854;-47
2023/08/06 06:30:50;;;;;;;;;;;;;;;27.20;62.31;99391.56;7397087;19;1838;-47
2023/08/06 06:33:19;;;;;;;;;;;;;;;27.23;62.28;99396.53;7396545;19;1506;-47
2023/08/06 06:35:47;;;;;;;;;;;;;;;27.09;62.39;99393.09;7398556;19;1189;-47
2023/08/06 06:38:15;;;;;;;;;;;;;;;27.02;62.86;99389.63;7398378;19;1478;-47
2023/08/06 06:40:43;;;;;;;;;;;;;;;27.10;62.51;99373.06;7397357;19;1522;-47
2023/08/06 06:43:12;;;;;;;;;;;;;;;27.20;62.21;99394.28;7396920;19;1674;-47
2023/08/06 06:45:40;;;;;;;;;;;;;;;27.14;62.40;99387.84;7398175;19;1537;-47
2023/08/06 06:48:11;;;;;;;;;;;;;;;27.15;62.41;99392.22;7395935;19;1494;-47
2023/08/06 06:50:39;;;;;;;;;;;;;;;27.07;62.42;99376.22;7398271;19;1842;-47
2023/08/06 06:53:07;;;;;;;;;;;;;;;27.10;62.67;99381.22;7396299;19;1882;-47
2023/08/06 06:55:35;;;;;;;;;;;;;;;27.21;62.34;99382.34;7396552;19;2084;-47
2023/08/06 06:58:04;;;;;;;;;;;;;;;27.12;62.47;99378.28;7397849;19;1738;-47
2023/08/06 07:00:32;;;;;;;;;;;;;;;26.99;62.60;99390.88;7397819;19;1493;-47
2023/08/06 07:03:00;;;;;;;;;;;;;;;26.95;62.98;99400.53;7397056;19;1382;-47
2023/08/06 07:05:31;;;;;;;;;;;;;;;26.99;62.98;99396.31;7398897;19;1027;-47
2023/08/06 07:07:59;;;;;;;;;;;;;;;26.97;62.78;99398.41;7395214;19;1490;-47
2023/08/06 07:10:28;;;;;;;;;;;;;;;27.08;62.44;99405.03;7397403;19;1680;-47
2023/08/06 07:12:57;;;;;;;;;;;;;;;26.92;62.90;99386.59;7395689;19;1857;-47
2023/08/06 07:15:25;;;;;;;;;;;;;;;26.85;63.30;99399.38;7396098;19;1300;-47
2023/08/06 07:17:53;;;;;;;;;;;;;;;26.95;63.01;99416.81;7397235;19;1559;-47
2023/08/06 07:20:21;;;;;;;;;;;;;;;26.93;63.09;99407.22;7396588;19;1130;-47
2023/08/06 07:22:52;;;;;;;;;;;;;;;26.87;63.37;99402.69;7397299;19;1610;-47
2023/08/06 07:25:21;;;;;;;;;;;;;;;26.94;63.39;99407.03;7397045;19;1138;-47
2023/08/06 07:27:49;;;;;;;;;;;;;;;26.97;62.92;99392.16;7395877;19;1862;-47
2023/08/06 07:30:17;;;;;;;;;;;;;;;27.13;62.62;99405.19;7396323;19;1545;-47
2023/08/06 07:32:45;;;;;;;;;;;;;;;27.12;62.47;99408.13;7394850;19;1856;-47
2023/08/06 07:35:14;;;;;;;;;;;;;;;27.01;63.15;99412.38;7396521;19;1902;-47
2023/08/06 07:37:43;;;;;;;;;;;;;;;26.98;62.92;99410.94;7395325;19;1674;-47
2023/08/06 07:40:14;;;;;;;;;;;;;;;26.95;63.14;99422.22;7395377;19;1470;-47
2023/08/06 07:42:43;;;;;;;;;;;;;;;27.10;62.87;99421.91;7397055;19;1422;-47
2023/08/06 07:45:12;;;;;;;;;;;;;;;26.96;63.03;99429.34;7396543;19;1793;-47
2023/08/06 07:47:40;;;;;;;;;;;;;;;26.90;63.20;99403.09;7396294;19;1738;-47
2023/08/06 07:50:09;;;;;;;;;;;;;;;26.89;63.10;99406.84;7397121;19;1018;-47
2023/08/06 07:52:37;;;;;;;;;;;;;;;26.98;62.92;99415.56;7392139;19;1867;-47
2023/08/06 07:55:06;;;;;;;;;;;;;;;27.11;62.49;99401.03;7396680;19;1750;-47
2023/08/06 07:57:37;;;;;;;;;;;;;;;27.08;62.66;99412.31;7395492;19;1473;-47
2023/08/06 08:00:07;;;;;;;;;;;;;;;27.01;63.01;99417.81;7398214;19;1476;-47
2023/08/06 08:02:35;;;;;;;;;;;;;;;26.93;63.16;99408.06;7403310;19;1042;-47
2023/08/06 08:05:03;;;;;;;;;;;;;;;26.98;63.06;99416.38;7403682;19;1042;-48
2023/08/06 08:07:32;;;;;;;;;;;;;;;26.89;63.29;99414.16;7403519;19;1643;-47
2023/08/06 08:10:00;;;;;;;;;;;;;;;27.04;63.07;99417.38;7404216;19;1714;-47
2023/08/06 08:12:28;;;;;;;;;;;;;;;26.85;63.22;99400.19;7402319;19;1842;-47
2023/08/06 08:14:59;;;;;;;;;;;;;;;26.85;63.37;99411.03;7403842;19;1849;-47
2023/08/06 08:17:27;;;;;;;;;;;;;;;26.86;63.44;99426.28;7403618;19;1478;-47
2023/08/06 08:19:56;;;;;;;;;;;;;;;26.88;63.23;99424.19;7403471;19;1817;-47
2023/08/06 08:22:24;;;;;;;;;;;;;;;26.86;63.55;99439.84;7400628;19;1411;-47
2023/08/06 08:24:52;;;;;;;;;;;;;;;26.87;63.59;99456.94;7404370;19;1010;-47
2023/08/06 08:27:21;;;;;;;;;;;;;;;26.91;63.43;99459.00;7401487;19;1956;-47
2023/08/06 08:29:49;;;;;;;;;;;;;;;26.91;63.25;99464.41;7402208;19;1406;-47
2023/08/06 08:32:20;;;;;;;;;;;;;;;26.94;63.08;99455.84;7399767;19;1860;-47
2023/08/06 08:34:48;;;;;;;;;;;;;;;27.04;62.95;99454.50;7401301;19;1761;-47
2023/08/06 08:37:16;;;;;;;;;;;;;;;26.99;62.92;99450.56;7402821;19;1451;-47
2023/08/06 08:39:44;;;;;;;;;;;;;;;26.91;63.37;99458.16;7401947;19;1694;-47
2023/08/06 08:42:13;;;;;;;;;;;;;;;26.88;63.21;99453.16;7400623;19;1225;-47
2023/08/06 08:44:42;;;;;;;;;;;;;;;26.90;63.28;99446.50;7401935;19;1225;-47
2023/08/06 08:47:11;;;;;;;;;;;;;;;26.85;63.33;99451.72;7402099;19;1470;-47
2023/08/06 08:49:43;;;;;;;;;;;;;;;26.84;63.60;99463.66;7400847;19;1284;-47
2023/08/06 08:52:13;;;;;;;;;;;;;;;26.81;63.69;99474.09;7399557;19;1871;-47
2023/08/06 08:54:41;;;;;;;;;;;;;;;26.87;63.33;99484.91;7401022;19;1524;-48
2023/08/06 08:57:09;;;;;;;;;;;;;;;26.88;63.31;99481.16;7402135;19;1217;-47
2023/08/06 08:59:38;;;;;;;;;;;;;;;26.91;63.39;99464.41;7401429;19;1209;-47
2023/08/06 09:02:07;;;;;;;;;;;;;;;26.94;63.11;99479.44;7401636;19;1596;-47
2023/08/06 09:04:36;;;;;;;;;;;;;;;26.90;63.37;99461.91;7401401;19;1505;-47
2023/08/06 09:07:08;;;;;;;;;;;;;;;26.90;63.31;99435.63;7401293;19;1398;-47
2023/08/06 09:09:37;;;;;;;;;;;;;;;26.93;63.13;99440.63;7401962;19;1719;-47
2023/08/06 09:12:13;;;;;;;;;;;;;;;27.01;62.97;99458.50;7399359;19;1841;-47
2023/08/06 09:14:42;;;;;;;;;;;;;;;26.98;63.11;99453.53;7400523;19;1450;-47
2023/08/06 09:17:10;;;;;;;;;;;;;;;27.04;63.27;99443.66;7401056;19;1686;-47
2023/08/06 09:19:39;;;;;;;;;;;;;;;26.99;63.08;99445.16;7399449;19;1664;-47
2023/08/06 09:22:13;;;;;;;;;;;;;;;27.13;62.61;99443.16;7400119;19;1022;-47
2023/08/06 09:24:41;;;;;;;;;;;;;;;27.12;62.61;99437.97;7399915;19;1443;-47
2023/08/06 09:27:13;;;;;;;;;;;;;;;27.13;62.98;99434.19;7400875;19;1842;-47
2023/08/06 09:29:43;;;;;;;;;;;;;;;27.12;63.02;99421.69;7399674;19;1569;-47
2023/08/06 09:32:11;;;;;;;;;;;;;;;27.13;62.90;99413.31;7397778;19;1861;-47
2023/08/06 09:34:41;;;;;;;;;;;;;;;27.05;62.90;99396.50;7397505;19;1217;-47
2023/08/06 09:37:13;;;;;;;;;;;;;;;27.10;62.90;99404.81;7400370;19;1173;-47
2023/08/06 09:39:42;;;;;;;;;;;;;;;27.09;62.88;99395.81;7399379;19;1224;-47
2023/08/06 09:42:11;;;;;;;;;;;;;;;27.13;62.73;99399.75;7400715;19;1316;-47
2023/08/06 09:44:43;;;;;;;;;;;;;;;27.03;62.92;99387.75;7400080;19;1396;-47
2023/08/06 09:47:11;;;;;;;;;;;;;;;27.01;63.08;99370.88;7401470;19;1058;-47
2023/08/06 09:49:46;;;;;;;;;;;;;;;26.98;63.21;99388.41;7400599;19;1623;-47
2023/08/06 09:52:17;;;;;;;;;;;;;;;26.90;63.39;99423.94;7395898;19;1976;-47
2023/08/06 09:54:46;;;;;;;;;;;;;;;26.96;63.50;99407.63;7400644;19;1916;-47
2023/08/06 09:57:14;;;;;;;;;;;;;;;27.02;63.18;99405.06;7401211;19;987;-47
2023/08/06 09:59:47;;;;;;;;;;;;;;;27.12;63.13;99419.00;7400273;19;1071;-47
2023/08/06 10:02:16;;;;;;;;;;;;;;;27.11;62.89;99414.59;7400219;19;1507;-47
2023/08/06 10:04:47;;;;;;;;;;;;;;;26.99;63.37;99434.28;7396805;19;1483;-47
2023/08/06 10:07:18;;;;;;;;;;;;;;;26.86;63.63;99450.69;7399975;19;1575;-47
2023/08/06 10:09:46;;;;;;;;;;;;;;;26.85;63.79;99470.72;7399665;19;1836;-47
2023/08/06 10:12:15;;;;;;;;;;;;;;;26.96;63.43;99486.31;7398312;19;1841;-47
2023/08/06 10:14:44;;;;;;;;;;;;;;;26.93;63.34;99473.16;7399542;19;1083;-47
2023/08/06 10:17:12;;;;;;;;;;;;;;;26.84;63.69;99417.53;7399577;19;1099;-47
2023/08/06 10:19:41;;;;;;;;;;;;;;;26.85;63.78;99410.22;7398491;19;1627;-47
2023/08/06 10:22:13;;;;;;;;;;;;;;;26.86;63.71;99425.44;7395201;19;1214;-47
2023/08/06 10:24:56;;;;;;;;;;;;;;;26.77;63.74;99468.28;7395491;19;1226;-47
2023/08/06 10:27:26;;;;;;;;;;;;;;;26.80;63.84;99497.69;7397607;19;1280;-47
2023/08/06 10:29:54;;;;;;;;;;;;;;;26.93;63.39;99494.03;7396265;19;1283;-47
2023/08/06 10:32:22;;;;;;;;;;;;;;;26.87;63.71;99501.16;7392845;19;1837;-49
2023/08/06 10:34:58;;;;;;;;;;;;;;;26.90;63.60;99492.59;7396956;19;1427;-47
2023/08/06 10:37:26;;;;;;;;;;;;;;;26.82;63.87;99490.16;7397394;19;1399;-47
2023/08/06 10:39:57;;;;;;;;;;;;;;;26.83;63.56;99478.25;7398064;19;1500;-47
2023/08/06 10:42:29;;;;;;;;;;;;;;;26.77;63.80;99441.97;7396543;19;1481;-47
2023/08/06 10:45:12;;;;;;;;;;;;;;;26.81;63.63;99411.72;7396129;19;1541;-47
2023/08/06 10:47:41;;;;;;;;;;;;;;;26.82;63.60;99397.94;7397697;19;1803;-47
2023/08/06 10:50:10;;;;;;;;;;;;;;;26.78;63.66;99389.41;7398774;19;1242;-47
2023/08/06 10:52:38;;;;;;;;;;;;;;;26.76;63.95;99398.81;7393986;19;1847;-47
2023/08/06 10:55:10;;;;;;;;;;;;;;;26.82;63.92;99427.78;7397910;19;1683;-47
2023/08/06 10:57:38;;;;;;;;;;;;;;;26.83;63.98;99437.56;7396518;19;1328;-47
2023/08/06 11:00:08;;;;;;;;;;;;;;;26.83;63.76;99434.84;7397218;19;1359;-47
2023/08/06 11:02:36;;;;;;;;;;;;;;;26.83;63.96;99456.53;7398056;19;1822;-47
2023/08/06 11:05:08;;;;;;;;;;;;;;;26.83;63.67;99489.09;7398236;19;1054;-47
2023/08/06 11:07:37;;;;;;;;;;;;;;;26.86;63.86;99510.38;7397793;19;1971;-47
2023/08/06 11:10:06;;;;;;;;;;;;;;;26.82;63.60;99516.44;7396300;19;1825;-47
2023/08/06 11:12:37;;;;;;;;;;;;;;;26.79;63.85;99517.69;7396035;19;1832;-47
2023/08/06 11:15:06;;;;;;;;;;;;;;;26.83;63.96;99515.41;7396269;19;1464;-47
2023/08/06 11:17:35;;;;;;;;;;;;;;;26.79;63.67;99496.00;7395742;19;1210;-47
2023/08/06 11:20:04;;;;;;;;;;;;;;;26.74;63.95;99474.97;7395731;19;1943;-47
2023/08/06 11:22:33;;;;;;;;;;;;;;;26.82;63.87;99479.31;7395374;19;1234;-47
2023/08/06 11:25:02;;;;;;;;;;;;;;;26.89;63.67;99473.84;7395654;19;1213;-47
2023/08/06 11:27:30;;;;;;;;;;;;;;;27.03;63.06;99458.28;7395350;19;1546;-47
2023/08/06 11:30:01;;;;;;;;;;;;;;;27.01;63.07;99463.09;7395889;19;1505;-47
2023/08/06 11:32:30;;;;;;;;;;;;;;;26.96;63.58;99461.88;7394666;19;1819;-47
2023/08/06 11:34:58;;;;;;;;;;;;;;;27.08;63.06;99442.16;7392998;19;1900;-47
2023/08/06 11:37:27;;;;;;;;;;;;;;;27.09;62.97;99428.38;7397083;19;1683;-47
2023/08/06 11:39:56;;;;;;;;;;;;;;;27.14;62.87;99425.03;7396368;19;1406;-47
2023/08/06 11:42:25;;;;;;;;;;;;;;;27.19;62.74;99455.84;7396337;19;1722;-47
2023/08/06 11:44:53;;;;;;;;;;;;;;;27.08;62.90;99421.31;7395765;19;1355;-47
2023/08/06 11:47:24;;;;;;;;;;;;;;;27.08;62.81;99421.31;7396946;19;1687;-47
2023/08/06 11:49:53;;;;;;;;;;;;;;;27.12;63.00;99433.38;7397482;19;1019;-47
2023/08/06 11:52:22;;;;;;;;;;;;;;;27.09;62.95;99419.41;7392382;19;1956;-47
2023/08/06 11:55:02;;;;;;;;;;;;;;;27.13;62.65;99421.44;7395980;19;1559;-47
2023/08/06 11:57:32;;;;;;;;;;;;;;;27.15;62.65;99432.91;7395116;19;1604;-47
2023/08/06 12:00:01;;;;;;;;;;;;;;;27.15;62.63;99442.94;7394350;19;1241;-47
2023/08/06 12:02:34;;;;;;;;;;;;;;;27.22;62.58;99437.47;7396288;19;1241;-47
2023/08/06 12:05:06;;;;;;;;;;;;;;;27.10;62.75;99434.66;7396685;19;1125;-47
2023/08/06 12:07:34;;;;;;;;;;;;;;;27.08;63.04;99431.31;7395938;19;1862;-47
2023/08/06 12:10:03;;;;;;;;;;;;;;;27.12;63.08;99432.56;7395565;19;1945;-47
2023/08/06 12:12:31;;;;;;;;;;;;;;;26.98;63.48;99448.94;7394106;19;1852;-47
2023/08/06 12:14:59;;;;;;;;;;;;;;;27.03;63.32;99434.69;7394991;19;1746;-47
2023/08/06 12:17:28;;;;;;;;;;;;;;;27.03;63.08;99439.28;7395145;19;1703;-47
2023/08/06 12:19:59;;;;;;;;;;;;;;;26.89;63.59;99454.84;7394309;19;1467;-47
2023/08/06 12:22:27;;;;;;;;;;;;;;;26.86;63.77;99450.69;7395238;19;1027;-47
2023/08/06 12:24:55;;;;;;;;;;;;;;;26.82;63.74;99437.78;7394341;19;1989;-47
2023/08/06 12:27:23;;;;;;;;;;;;;;;26.86;63.50;99418.16;7395510;19;1806;-47
2023/08/06 12:29:52;;;;;;;;;;;;;;;26.86;63.69;99404.59;7394846;19;1734;-47
2023/08/06 12:32:21;;;;;;;;;;;;;;;26.91;63.65;99431.88;7393896;19;1568;-47
2023/08/06 12:34:50;;;;;;;;;;;;;;;26.92;63.61;99383.88;7392398;19;1838;-47
2023/08/06 12:37:21;;;;;;;;;;;;;;;27.03;63.16;99376.91;7395111;19;1501;-47
2023/08/06 12:39:49;;;;;;;;;;;;;;;27.01;63.04;99387.97;7394592;19;1259;-47
2023/08/06 12:42:18;;;;;;;;;;;;;;;27.10;63.07;99399.38;7395084;19;1632;-47
2023/08/06 12:44:46;;;;;;;;;;;;;;;27.03;63.14;99412.16;7394577;19;1237;-47
2023/08/06 12:47:14;;;;;;;;;;;;;;;27.03;63.18;99412.16;7397076;19;1435;-47
2023/08/06 12:49:43;;;;;;;;;;;;;;;27.07;62.85;99425.06;7402886;19;1035;-47
2023/08/06 12:52:12;;;;;;;;;;;;;;;26.91;63.61;99426.44;7402113;19;1821;-47
2023/08/06 12:54:45;;;;;;;;;;;;;;;26.88;63.36;99437.75;7398839;19;1857;-47
2023/08/06 12:57:14;;;;;;;;;;;;;;;26.98;63.43;99438.09;7401537;19;1515;-47
2023/08/06 12:59:42;;;;;;;;;;;;;;;26.94;63.26;99427.91;7397402;19;1292;-47
2023/08/06 13:02:11;;;;;;;;;;;;;;;27.03;63.17;99429.25;7401557;19;1410;-47
2023/08/06 13:04:39;;;;;;;;;;;;;;;26.91;63.33;99448.13;7400587;19;1434;-47
2023/08/06 13:07:08;;;;;;;;;;;;;;;26.99;63.36;99438.91;7401199;19;1394;-47